createdAt,value
2018-07-16T00:04:15.538Z,5.07
2018-07-16T00:09:19.006Z,5.40
2018-07-16T00:14:22.279Z,6.27
2018-07-16T00:19:25.525Z,7.97
2018-07-16T00:24:28.681Z,5.67
2018-07-16T00:29:31.906Z,5.73
2018-07-16T00:34:35.044Z,5.00
2018-07-16T00:39:38.243Z,5.60
2018-07-16T00:44:41.373Z,6.43
2018-07-16T00:49:44.554Z,7.63
2018-07-16T00:54:47.689Z,5.67
2018-07-16T00:59:50.832Z,5.73
2018-07-16T01:04:54.063Z,5.53
2018-07-16T01:09:57.199Z,7.43
2018-07-16T01:15:01.293Z,7.20
2018-07-16T01:20:04.483Z,5.93
2018-07-16T01:25:07.591Z,7.77
2018-07-16T01:30:10.742Z,6.47
2018-07-16T01:35:13.874Z,6.23
2018-07-16T01:40:17.013Z,7.20
2018-07-16T01:45:20.126Z,6.40
2018-07-16T01:50:23.335Z,7.50
2018-07-16T01:55:26.611Z,6.77
2018-07-16T02:00:29.799Z,7.00
2018-07-16T02:05:33.048Z,6.77
2018-07-16T02:10:36.162Z,7.20
2018-07-16T02:15:39.290Z,7.80
2018-07-16T02:20:42.394Z,8.20
2018-07-16T02:25:45.694Z,7.97
2018-07-16T02:30:48.809Z,7.57
2018-07-16T02:35:52.467Z,9.43
2018-07-16T02:40:55.728Z,7.63
2018-07-16T02:45:59.716Z,7.43
2018-07-16T02:51:02.913Z,8.73
2018-07-16T02:56:06.083Z,8.50
2018-07-16T03:01:09.290Z,8.30
2018-07-16T03:06:12.440Z,8.80
2018-07-16T03:11:15.648Z,8.20
2018-07-16T03:16:18.853Z,7.80
2018-07-16T03:21:22.044Z,8.73
2018-07-16T03:26:25.251Z,7.27
2018-07-16T03:31:28.363Z,7.43
2018-07-16T03:36:31.523Z,8.10
2018-07-16T03:41:34.665Z,7.33
2018-07-16T03:46:37.808Z,7.83
2018-07-16T03:51:40.933Z,8.07
2018-07-16T03:56:44.045Z,7.43
2018-07-16T04:01:47.285Z,7.13
2018-07-16T04:06:50.731Z,6.73
2018-07-16T04:11:54.067Z,6.90
2018-07-16T04:16:57.212Z,7.23
2018-07-16T04:22:00.335Z,6.83
2018-07-16T04:27:03.464Z,6.63
2018-07-16T04:32:06.592Z,5.90
2018-07-16T04:37:09.729Z,5.07
2018-07-16T04:42:12.859Z,5.77
2018-07-16T04:47:16.703Z,4.70
2018-07-16T04:52:19.915Z,7.73
2018-07-16T04:57:23.177Z,5.12
2018-07-16T05:02:27.662Z,4.42
2018-07-16T05:07:30.911Z,6.05
2018-07-16T05:12:49.680Z,6.80
2018-07-16T05:17:53.540Z,6.33
2018-07-16T05:22:56.920Z,6.22
2018-07-16T05:28:00.121Z,7.90
2018-07-16T05:33:03.335Z,6.80
2018-07-16T05:38:06.496Z,6.83
2018-07-16T05:43:09.608Z,8.98
2018-07-16T05:48:12.767Z,7.35
2018-07-16T05:53:15.994Z,7.42
2018-07-16T05:58:19.163Z,6.65
2018-07-16T06:03:22.364Z,6.22
2018-07-16T06:08:25.623Z,6.78
2018-07-16T06:13:29.019Z,7.72
2018-07-16T06:18:32.238Z,5.25
2018-07-16T06:23:35.426Z,6.60
2018-07-16T06:28:38.560Z,5.90
2018-07-16T06:33:41.756Z,5.75
2018-07-16T06:38:44.863Z,5.87
2018-07-16T06:43:48.151Z,5.87
2018-07-16T06:48:51.272Z,6.00
2018-07-16T06:53:54.529Z,5.87
2018-07-16T06:58:57.795Z,7.85
2018-07-16T07:04:00.965Z,6.75
2018-07-16T07:09:04.904Z,8.03
2018-07-16T07:14:08.097Z,6.28
2018-07-16T07:19:11.376Z,5.15
2018-07-16T07:24:14.605Z,5.33
2018-07-16T07:29:17.720Z,5.22
2018-07-16T07:34:20.907Z,4.97
2018-07-16T07:39:24.337Z,5.03
2018-07-16T07:44:27.675Z,4.87
2018-07-16T07:49:30.982Z,4.78
2018-07-16T07:54:34.200Z,5.37
2018-07-16T07:59:37.291Z,4.97
2018-07-16T08:04:40.436Z,5.15
2018-07-16T08:09:43.591Z,7.12
2018-07-16T08:14:46.867Z,5.25
2018-07-16T08:19:50.015Z,5.50
2018-07-16T08:24:53.263Z,4.60
2018-07-16T08:29:56.495Z,4.83
2018-07-16T08:34:59.634Z,4.97
2018-07-16T08:40:02.797Z,4.70
2018-07-16T08:45:06.071Z,4.70
2018-07-16T08:50:09.213Z,5.03
2018-07-16T08:55:12.441Z,5.30
2018-07-16T09:00:15.649Z,4.60
2018-07-16T09:05:18.824Z,5.22
2018-07-16T09:10:23.007Z,4.35
2018-07-16T09:15:27.133Z,4.20
2018-07-16T09:20:30.284Z,4.10
2018-07-16T09:25:33.486Z,4.55
2018-07-16T09:30:36.651Z,3.12
2018-07-16T09:35:39.872Z,3.10
2018-07-16T09:40:43.036Z,3.75
2018-07-16T09:45:46.276Z,3.75
2018-07-16T09:50:49.651Z,3.67
2018-07-16T09:55:52.855Z,4.03
2018-07-16T10:00:56.055Z,4.92
2018-07-16T10:05:59.205Z,2.80
2018-07-16T10:11:02.346Z,2.77
2018-07-16T10:16:05.624Z,3.50
2018-07-16T10:21:08.740Z,5.08
2018-07-16T10:26:11.939Z,3.87
2018-07-16T10:31:15.139Z,3.42
2018-07-16T10:36:18.251Z,5.10
2018-07-16T10:41:21.454Z,4.65
2018-07-16T10:46:24.735Z,3.55
2018-07-16T10:51:27.972Z,3.75
2018-07-16T10:56:31.095Z,4.78
2018-07-16T11:01:34.878Z,3.42
2018-07-16T11:06:38.131Z,3.92
2018-07-16T11:11:41.310Z,3.55
2018-07-16T11:16:44.454Z,2.83
2018-07-16T11:21:47.888Z,2.45
2018-07-16T11:26:51.756Z,3.65
2018-07-16T11:31:55.087Z,2.70
2018-07-16T11:36:58.472Z,3.05
2018-07-16T11:42:01.699Z,2.62
2018-07-16T11:47:04.917Z,3.02
2018-07-16T11:52:08.151Z,2.87
2018-07-16T11:57:11.261Z,2.65
2018-07-16T12:02:14.435Z,3.10
2018-07-16T12:07:17.572Z,4.33
2018-07-16T12:12:20.910Z,3.02
2018-07-16T12:17:24.031Z,3.00
2018-07-16T12:22:27.327Z,3.62
2018-07-16T12:27:32.726Z,4.58
2018-07-16T12:32:35.808Z,3.10
2018-07-16T12:37:38.974Z,3.20
2018-07-16T12:42:42.127Z,3.30
2018-07-16T12:47:45.344Z,3.05
2018-07-16T12:52:48.487Z,3.40
2018-07-16T12:57:51.764Z,3.02
2018-07-16T13:02:55.091Z,6.22
2018-07-16T13:07:59.227Z,3.22
2018-07-16T13:13:02.403Z,2.92
2018-07-16T13:18:05.575Z,3.10
2018-07-16T13:23:08.691Z,4.58
2018-07-16T13:28:11.794Z,3.73
2018-07-16T13:33:15.010Z,3.40
2018-07-16T13:38:18.115Z,3.23
2018-07-16T13:43:21.357Z,4.35
2018-07-16T13:48:24.501Z,3.10
2018-07-16T13:53:27.689Z,3.07
2018-07-16T13:58:30.813Z,3.30
2018-07-16T14:03:33.946Z,3.37
2018-07-16T14:08:37.080Z,3.30
2018-07-16T14:13:40.274Z,2.98
2018-07-16T14:18:43.445Z,3.73
2018-07-16T14:23:46.624Z,4.67
2018-07-16T14:28:49.776Z,3.60
2018-07-16T14:33:53.164Z,3.53
2018-07-16T14:38:56.394Z,5.12
2018-07-16T14:43:59.686Z,3.70
2018-07-16T14:49:02.794Z,3.10
2018-07-16T14:54:05.988Z,3.77
2018-07-16T14:59:09.177Z,3.50
2018-07-16T15:04:12.326Z,3.50
2018-07-16T15:09:15.466Z,3.30
2018-07-16T15:14:18.567Z,3.15
2018-07-16T15:19:21.768Z,4.22
2018-07-16T15:24:25.026Z,3.45
2018-07-16T15:29:28.264Z,3.33
2018-07-16T15:34:31.889Z,2.70
2018-07-16T15:39:35.161Z,3.05
2018-07-16T15:44:38.239Z,2.77
2018-07-16T15:49:41.379Z,3.65
2018-07-16T15:54:44.506Z,5.42
2018-07-16T15:59:47.662Z,4.42
2018-07-16T16:04:50.925Z,2.87
2018-07-16T16:09:54.250Z,3.10
2018-07-16T16:14:57.483Z,3.10
2018-07-16T16:20:00.962Z,2.92
2018-07-16T16:25:04.314Z,3.08
2018-07-16T16:30:07.446Z,3.20
2018-07-16T16:35:10.625Z,3.10
2018-07-16T16:40:14.596Z,3.25
2018-07-16T16:45:17.858Z,3.00
2018-07-16T16:50:21.032Z,3.37
2018-07-16T16:55:24.289Z,4.70
2018-07-16T17:00:27.565Z,4.63
2018-07-16T17:05:30.799Z,3.60
2018-07-16T17:10:33.968Z,3.80
2018-07-16T17:15:37.464Z,5.63
2018-07-16T17:20:40.605Z,4.50
2018-07-16T17:25:43.785Z,6.10
2018-07-16T17:30:46.887Z,3.80
2018-07-16T17:35:50.143Z,4.20
2018-07-16T17:40:53.593Z,5.23
2018-07-16T17:45:56.891Z,4.77
2018-07-16T17:51:00.040Z,4.30
2018-07-16T17:56:03.367Z,3.87
2018-07-16T18:01:06.958Z,5.07
2018-07-16T18:06:10.047Z,4.23
2018-07-16T18:11:13.189Z,4.27
2018-07-16T18:16:16.324Z,3.93
2018-07-16T18:21:19.530Z,4.53
2018-07-16T18:26:23.415Z,3.83
2018-07-16T18:31:26.744Z,4.23
2018-07-16T18:36:29.942Z,4.37
2018-07-16T18:41:33.144Z,5.00
2018-07-16T18:46:36.260Z,4.40
2018-07-16T19:10:40.023Z,5.27
2018-07-16T19:17:50.339Z,5.17
2018-07-16T19:22:55.357Z,5.67
2018-07-16T19:28:00.456Z,5.93
2018-07-16T19:33:04.321Z,4.93
2018-07-16T19:38:07.606Z,5.67
2018-07-16T19:43:13.338Z,4.70
2018-07-16T19:48:16.725Z,5.57
2018-07-16T19:53:19.912Z,5.87
2018-07-16T19:58:23.690Z,7.43
2018-07-16T20:03:26.959Z,6.07
2018-07-16T20:08:32.632Z,9.93
2018-07-16T20:13:37.778Z,6.13
2018-07-16T20:18:40.961Z,7.07
2018-07-16T20:23:44.528Z,6.60
2018-07-16T20:28:47.668Z,7.10
2018-07-16T20:33:50.931Z,8.33
2018-07-16T20:38:54.306Z,4.93
2018-07-16T20:43:57.699Z,7.00
2018-07-16T20:49:01.031Z,5.67
2018-07-16T20:54:05.119Z,4.73
2018-07-16T20:59:08.301Z,4.97
2018-07-16T21:04:11.475Z,5.10
2018-07-16T21:09:14.602Z,4.93
2018-07-16T21:14:17.681Z,6.20
2018-07-16T21:19:20.877Z,6.40
2018-07-16T21:24:24.178Z,6.60
2018-07-16T21:29:28.181Z,6.97
2018-07-16T21:34:32.104Z,6.53
2018-07-16T21:39:35.437Z,6.97
2018-07-16T21:44:38.873Z,6.33
2018-07-16T21:49:42.294Z,8.60
2018-07-16T21:54:45.396Z,5.97
2018-07-16T21:59:48.691Z,6.83
2018-07-16T22:04:52.257Z,5.93
2018-07-16T22:09:55.444Z,6.40
2018-07-16T22:14:58.559Z,6.77
2018-07-16T22:20:08.153Z,6.77
2018-07-16T22:25:11.536Z,6.30
2018-07-16T22:30:14.934Z,6.03
2018-07-16T22:35:18.182Z,6.97
2018-07-16T22:40:21.337Z,7.47
2018-07-16T22:45:24.614Z,6.63
2018-07-16T22:50:27.750Z,7.93
2018-07-16T22:55:30.905Z,8.13
2018-07-16T23:00:34.042Z,7.23
2018-07-16T23:05:37.259Z,7.40
2018-07-16T23:10:40.425Z,7.53
2018-07-16T23:15:44.052Z,7.90
2018-07-16T23:20:47.290Z,7.63
2018-07-16T23:25:50.605Z,8.03
2018-07-16T23:30:53.712Z,7.80
2018-07-16T23:35:56.890Z,7.57
2018-07-16T23:41:00.056Z,8.00
2018-07-16T23:46:03.391Z,8.30
2018-07-16T23:51:06.593Z,8.03
2018-07-16T23:56:09.746Z,8.20
